Time;durP1;ratioP1;P1;durP2;ratioP2;P2;SDS_P1;SDS_P2;PMS_P1;PMS_P2;Temp;Humidity;BMP_temperature;BMP_pressure;BME280_temperature;BME280_humidity;BME280_pressure;Samples;Min_cycle;Max_cycle;Signal;HPM_P1;HPM_P2
2021/05/19 00:00:12;;;;;;;1.40;1.30;;;20.90;52.80;;;;;;10459840;28;20197;-11
2021/05/19 00:05:35;;;;;;;2.30;1.60;;;20.90;52.90;;;;;;10456206;28;20647;-13
2021/05/19 00:10:57;;;;;;;1.37;1.27;;;20.90;52.90;;;;;;10485886;28;20196;-12
2021/05/19 00:16:19;;;;;;;2.13;1.53;;;20.90;53.00;;;;;;10496623;28;20566;-11
2021/05/19 00:21:41;;;;;;;2.50;1.67;;;20.90;52.90;;;;;;10496875;28;20258;-14
2021/05/19 00:27:03;;;;;;;1.63;1.53;;;21.00;52.80;;;;;;10492630;28;20208;-12
2021/05/19 00:32:25;;;;;;;1.50;1.10;;;21.00;52.80;;;;;;10495687;28;20704;-13
2021/05/19 00:37:48;;;;;;;3.10;1.30;;;20.90;52.80;;;;;;10505179;28;20192;-14
2021/05/19 00:43:09;;;;;;;1.47;1.37;;;20.90;52.70;;;;;;10538077;28;20588;-12
2021/05/19 00:48:31;;;;;;;1.30;1.20;;;20.90;52.80;;;;;;10536648;28;20200;-12
2021/05/19 00:53:55;;;;;;;1.40;1.30;;;20.90;52.80;;;;;;10537727;28;20223;-14
2021/05/19 00:59:18;;;;;;;1.30;1.20;;;20.80;52.80;;;;;;10537481;28;20351;-12
2021/05/19 01:04:39;;;;;;;1.60;1.30;;;20.90;52.80;;;;;;10499518;28;20212;-13
2021/05/19 01:10:03;;;;;;;1.50;1.40;;;20.80;52.90;;;;;;10494976;28;20273;-12
2021/05/19 01:15:25;;;;;;;1.23;1.10;;;20.90;52.70;;;;;;10493830;28;20716;-12
2021/05/19 01:20:48;;;;;;;1.63;1.10;;;20.90;52.60;;;;;;10494602;28;20207;-13
2021/05/19 01:26:13;;;;;;;1.50;1.40;;;21.00;52.60;;;;;;10494337;28;20239;-12
2021/05/19 01:31:35;;;;;;;1.10;1.00;;;21.00;52.50;;;;;;10494342;28;20243;-12
2021/05/19 01:36:56;;;;;;;1.30;1.20;;;20.90;52.50;;;;;;10493182;28;20281;-12
2021/05/19 01:42:19;;;;;;;2.37;1.20;;;20.90;52.60;;;;;;10493145;28;20216;-13
2021/05/19 01:47:45;;;;;;;1.37;1.27;;;20.90;52.30;;;;;;10492076;28;20200;-14
2021/05/19 01:53:07;;;;;;;1.20;1.10;;;20.90;52.50;;;;;;10492403;28;20219;-11
2021/05/19 01:58:29;;;;;;;1.30;1.20;;;20.80;52.60;;;;;;10458203;28;20700;-13
2021/05/19 02:03:51;;;;;;;1.30;1.20;;;20.90;52.60;;;;;;10477973;28;20688;-12
2021/05/19 02:09:13;;;;;;;1.10;1.00;;;20.80;52.50;;;;;;10493850;28;20200;-13
2021/05/19 02:14:36;;;;;;;1.20;1.10;;;20.80;52.40;;;;;;10494254;28;20216;-13
2021/05/19 02:20:07;;;;;;;1.30;1.20;;;20.90;52.90;;;;;;10501921;28;20195;-12
2021/05/19 02:25:28;;;;;;;1.50;1.23;;;21.00;52.20;;;;;;10500409;28;20204;-12
2021/05/19 02:30:51;;;;;;;2.20;1.30;;;20.90;52.20;;;;;;10501436;28;20196;-12
2021/05/19 02:36:12;;;;;;;1.47;1.37;;;20.90;52.20;;;;;;10530470;28;20577;-11
2021/05/19 02:41:34;;;;;;;1.90;1.20;;;20.90;52.40;;;;;;10543249;28;20215;-13
2021/05/19 02:46:56;;;;;;;1.30;1.13;;;20.80;53.00;;;;;;10561761;22;20236;-13
2021/05/19 02:52:18;;;;;;;2.10;1.53;;;20.90;52.40;;;;;;10490961;28;20197;-13
2021/05/19 02:57:40;;;;;;;1.90;1.40;;;20.90;52.10;;;;;;10487797;28;20693;-14
2021/05/19 03:03:02;;;;;;;2.10;1.43;;;20.90;52.10;;;;;;10435711;28;20190;-13
2021/05/19 03:08:24;;;;;;;3.37;1.33;;;21.00;51.90;;;;;;10424744;28;20217;-13
2021/05/19 03:13:46;;;;;;;1.30;1.20;;;20.90;52.00;;;;;;10438864;28;20235;-14
2021/05/19 03:19:08;;;;;;;1.47;1.37;;;20.90;52.00;;;;;;10449317;28;20221;-14
2021/05/19 03:24:30;;;;;;;1.50;1.40;;;20.90;52.20;;;;;;10457001;28;20197;-12
2021/05/19 03:29:52;;;;;;;1.30;1.20;;;20.90;52.00;;;;;;10457640;28;20212;-15
2021/05/19 03:35:14;;;;;;;1.50;1.40;;;20.90;52.00;;;;;;10456738;28;20224;-14
2021/05/19 03:40:36;;;;;;;1.70;1.47;;;20.90;52.00;;;;;;10457091;28;20220;-12
2021/05/19 03:45:58;;;;;;;1.57;1.47;;;21.00;51.70;;;;;;10456764;28;20196;-14
2021/05/19 03:51:20;;;;;;;1.30;1.20;;;21.00;51.60;;;;;;10456681;28;20250;-12
2021/05/19 03:56:43;;;;;;;1.10;1.00;;;20.90;51.80;;;;;;10435688;28;20229;-17
2021/05/19 04:02:05;;;;;;;1.30;1.20;;;20.90;51.80;;;;;;10429229;28;20673;-12
2021/05/19 04:07:27;;;;;;;1.10;1.00;;;20.80;51.90;;;;;;10436847;28;20229;-12
2021/05/19 04:12:50;;;;;;;1.70;1.60;;;20.90;51.80;;;;;;10447004;28;20255;-12
2021/05/19 04:18:12;;;;;;;1.43;1.33;;;20.80;51.80;;;;;;10456357;28;20218;-12
2021/05/19 04:23:35;;;;;;;1.17;1.07;;;20.90;51.70;;;;;;10433166;28;20194;-12
2021/05/19 04:28:56;;;;;;;1.20;1.10;;;20.90;52.30;;;;;;10413129;28;20220;-14
2021/05/19 04:34:18;;;;;;;1.30;1.20;;;20.90;51.70;;;;;;10414020;28;20760;-15
2021/05/19 04:39:41;;;;;;;0.93;0.93;;;20.90;51.80;;;;;;10414716;28;20645;-14
2021/05/19 04:45:04;;;;;;;1.47;1.37;;;20.80;51.80;;;;;;10440224;28;20189;-12
2021/05/19 04:50:28;;;;;;;1.20;1.10;;;20.80;51.80;;;;;;10454888;28;20248;-12
2021/05/19 04:55:50;;;;;;;1.60;1.50;;;20.80;51.90;;;;;;10453526;28;20216;-13
2021/05/19 05:01:12;;;;;;;2.90;1.70;;;20.80;51.50;;;;;;10446876;28;20214;-12
2021/05/19 05:06:33;;;;;;;1.60;1.50;;;21.00;50.80;;;;;;10414634;28;20262;-14
2021/05/19 05:11:56;;;;;;;1.50;1.40;;;21.00;51.20;;;;;;10427785;28;20205;-15
2021/05/19 05:17:17;;;;;;;3.00;1.60;;;20.90;51.40;;;;;;10411316;28;20214;-14
2021/05/19 05:22:39;;;;;;;2.07;1.67;;;20.90;51.10;;;;;;10410338;28;20220;-12
2021/05/19 05:28:01;;;;;;;2.10;1.90;;;20.90;51.30;;;;;;10411411;28;20221;-15
2021/05/19 05:33:23;;;;;;;2.67;1.60;;;20.90;51.20;;;;;;10410851;28;20563;-14
2021/05/19 05:38:45;;;;;;;1.80;1.70;;;20.80;51.20;;;;;;10408726;28;20232;-14
2021/05/19 05:44:08;;;;;;;2.37;2.10;;;20.90;51.30;;;;;;10410014;28;20620;-14
2021/05/19 05:49:29;;;;;;;2.03;1.90;;;20.90;51.20;;;;;;10410402;28;20232;-14
2021/05/19 05:54:51;;;;;;;2.13;1.93;;;20.90;51.10;;;;;;10410253;28;20228;-12
2021/05/19 06:00:15;;;;;;;1.87;1.70;;;21.00;51.10;;;;;;10451377;28;20225;-14
2021/05/19 06:05:37;;;;;;;2.13;1.90;;;20.90;51.30;;;;;;10408879;28;20224;-14
2021/05/19 06:10:59;;;;;;;9.10;1.70;;;20.90;51.00;;;;;;10445359;28;20270;-12
2021/05/19 06:16:22;;;;;;;4.23;1.47;;;21.40;50.30;;;;;;10441007;28;20220;-14
2021/05/19 06:21:44;;;;;;;1.33;1.17;;;21.90;49.20;;;;;;10432830;28;20197;-14
2021/05/19 06:27:06;;;;;;;3.83;1.40;;;22.30;48.60;;;;;;10442975;28;20756;-15
2021/05/19 06:32:28;;;;;;;2.60;1.50;;;22.60;48.10;;;;;;10444996;28;20280;-14
2021/05/19 06:37:50;;;;;;;5.60;1.30;;;22.80;47.30;;;;;;10447453;28;20633;-12
2021/05/19 06:43:11;;;;;;;7.37;1.53;;;22.40;48.20;;;;;;10450092;28;20208;-12
2021/05/19 06:48:34;;;;;;;2.50;1.30;;;22.90;47.60;;;;;;10450277;28;20221;-14
2021/05/19 06:53:55;;;;;;;4.13;1.40;;;23.20;46.90;;;;;;10450263;28;20693;-13
2021/05/19 06:59:19;;;;;;;3.80;1.23;;;23.50;46.20;;;;;;10428692;28;20593;-14
2021/05/19 07:04:41;;;;;;;4.30;1.53;;;23.70;45.80;;;;;;10452105;28;20200;-15
2021/05/19 07:10:04;;;;;;;3.40;1.40;;;23.80;45.40;;;;;;10448525;28;20640;-12
2021/05/19 07:15:31;;;;;;;3.17;1.43;;;24.00;45.40;;;;;;10416289;28;20271;-12
2021/05/19 07:20:54;;;;;;;1.83;1.20;;;24.00;45.40;;;;;;10416435;28;20221;-12
2021/05/19 07:26:16;;;;;;;1.90;1.27;;;24.00;45.30;;;;;;10415902;28;20197;-14
2021/05/19 07:31:38;;;;;;;5.37;1.60;;;24.00;45.40;;;;;;10416171;28;20202;-12
2021/05/19 07:37:01;;;;;;;3.10;1.60;;;24.10;45.30;;;;;;10414666;28;20225;-12
2021/05/19 07:42:22;;;;;;;4.33;1.60;;;23.80;45.40;;;;;;10411655;28;20248;-11
2021/05/19 07:47:44;;;;;;;5.80;1.37;;;23.40;46.30;;;;;;10414544;28;20260;-13
2021/05/19 07:53:07;;;;;;;4.20;1.63;;;23.80;45.80;;;;;;10414172;28;20713;-14
2021/05/19 07:58:33;;;;;;;3.93;1.60;;;24.00;45.40;;;;;;10417240;28;20209;-14
2021/05/19 08:03:54;;;;;;;5.60;1.50;;;24.20;45.10;;;;;;10443573;28;20268;-14
2021/05/19 08:09:17;;;;;;;3.53;1.20;;;24.30;45.10;;;;;;10450162;28;20224;-14
2021/05/19 08:14:38;;;;;;;2.60;1.40;;;24.60;45.20;;;;;;10417237;28;20214;-15
2021/05/19 08:20:00;;;;;;;4.07;1.63;;;23.20;46.40;;;;;;10439367;28;20220;-14
2021/05/19 08:25:23;;;;;;;4.27;1.40;;;22.50;48.30;;;;;;10454801;28;20193;-14
2021/05/19 08:30:44;;;;;;;3.77;1.60;;;22.80;48.50;;;;;;10454811;28;20672;-13
2021/05/19 08:36:06;;;;;;;12.73;2.10;;;22.40;48.60;;;;;;10454571;28;20576;-12
2021/05/19 08:41:28;;;;;;;5.07;2.37;;;22.00;49.20;;;;;;10455333;28;20193;-15
2021/05/19 08:46:55;;;;;;;11.23;2.30;;;21.80;49.90;;;;;;10480885;22;20221;-13
2021/05/19 08:52:17;;;;;;;4.83;1.73;;;21.60;50.40;;;;;;10484655;28;20198;-12
2021/05/19 08:57:41;;;;;;;11.33;1.83;;;21.60;50.80;;;;;;10492790;28;20307;-13
2021/05/19 09:03:09;;;;;;;8.17;3.00;;;21.50;51.00;;;;;;10469702;28;20270;-12
2021/05/19 09:08:36;;;;;;;7.80;3.30;;;21.30;46.10;;;;;;10430767;28;20291;-11
2021/05/19 09:13:58;;;;;;;3.70;2.93;;;21.30;46.30;;;;;;10412274;28;20220;-13
2021/05/19 09:19:33;;;;;;;6.13;2.93;;;21.30;45.00;;;;;;10411886;28;20221;-13
2021/05/19 09:24:54;;;;;;;5.50;2.50;;;21.30;44.40;;;;;;10440424;28;20189;-12
2021/05/19 09:30:35;;;;;;;3.40;2.67;;;21.20;44.10;;;;;;10451250;28;20216;-12
2021/05/19 09:36:15;;;;;;;5.17;2.60;;;21.10;44.10;;;;;;10450720;28;20286;-12
2021/05/19 09:41:37;;;;;;;3.70;2.97;;;21.10;44.40;;;;;;10452490;28;20213;-13
2021/05/19 09:46:59;;;;;;;4.43;2.80;;;21.10;43.50;;;;;;10490574;28;20195;-13
2021/05/19 09:52:21;;;;;;;4.60;2.60;;;20.90;44.10;;;;;;10460454;28;20581;-13
2021/05/19 09:57:45;;;;;;;3.27;2.00;;;21.00;44.60;;;;;;10450773;28;20679;-13
2021/05/19 10:03:11;;;;;;;4.97;1.87;;;20.90;45.10;;;;;;10450479;28;20211;-12
2021/05/19 10:08:33;;;;;;;3.20;1.60;;;21.00;46.20;;;;;;10409963;28;20217;-12
2021/05/19 10:13:55;;;;;;;2.93;1.60;;;21.10;47.20;;;;;;10409585;28;20216;-12
2021/05/19 10:19:25;;;;;;;2.50;1.40;;;21.10;47.50;;;;;;10411603;28;20213;-12
2021/05/19 10:24:53;;;;;;;1.47;1.30;;;21.20;48.00;;;;;;10409269;28;20765;-12
2021/05/19 10:30:32;;;;;;;1.53;0.90;;;21.20;48.20;;;;;;10444222;28;20213;-12
2021/05/19 10:35:55;;;;;;;3.53;1.03;;;21.20;48.30;;;;;;10458346;28;20223;-13
2021/05/19 10:41:34;;;;;;;2.63;0.93;;;21.20;48.60;;;;;;10497571;28;20595;-13
2021/05/19 10:47:00;;;;;;;2.40;1.20;;;21.10;48.90;;;;;;10416545;28;20205;-14
2021/05/19 10:52:31;;;;;;;2.00;0.90;;;21.10;49.70;;;;;;10416270;28;20229;-13
2021/05/19 10:57:56;;;;;;;7.17;1.13;;;21.10;49.30;;;;;;10413065;28;20226;-12
2021/05/19 11:03:18;;;;;;;1.47;1.10;;;21.00;49.20;;;;;;10439876;28;20444;-12
2021/05/19 11:08:41;;;;;;;2.57;1.13;;;21.20;49.20;;;;;;10452949;28;20262;-12
2021/05/19 11:14:26;;;;;;;2.13;0.83;;;21.30;49.20;;;;;;10432130;28;20459;-12
2021/05/19 11:19:47;;;;;;;1.83;1.07;;;21.30;49.20;;;;;;10457317;28;20217;-12
2021/05/19 11:25:14;;;;;;;2.80;1.10;;;21.50;49.30;;;;;;10454771;28;20673;-13
2021/05/19 11:30:35;;;;;;;2.77;0.97;;;21.80;48.40;;;;;;10455540;28;20224;-12
2021/05/19 11:35:57;;;;;;;2.17;0.90;;;22.30;47.20;;;;;;10455018;28;20271;-11
2021/05/19 11:41:21;;;;;;;5.50;0.90;;;22.30;47.00;;;;;;10455352;28;20233;-13
2021/05/19 11:46:43;;;;;;;2.43;1.00;;;22.20;47.00;;;;;;10451305;28;20235;-10
2021/05/19 11:52:05;;;;;;;2.10;0.80;;;21.80;48.30;;;;;;10456246;28;20620;-12
2021/05/19 11:57:31;;;;;;;4.33;0.97;;;21.60;48.30;;;;;;10420053;28;20732;-12
2021/05/19 12:02:53;;;;;;;4.10;1.00;;;21.50;48.10;;;;;;10435385;28;20254;-10
2021/05/19 12:08:16;;;;;;;6.90;1.27;;;22.10;46.90;;;;;;10455166;28;20205;-13
2021/05/19 12:13:41;;;;;;;3.80;1.20;;;22.80;45.90;;;;;;10440373;28;20221;-12
2021/05/19 12:19:08;;;;;;;3.13;0.90;;;23.40;44.90;;;;;;10413104;28;20690;-12
2021/05/19 12:24:29;;;;;;;3.70;1.10;;;23.80;44.40;;;;;;10430585;28;20280;-11
2021/05/19 12:29:59;;;;;;;4.60;1.23;;;24.00;43.50;;;;;;10440260;28;20307;-13
2021/05/19 12:35:20;;;;;;;2.20;1.40;;;24.10;43.30;;;;;;10430608;28;20217;-12
2021/05/19 12:40:45;;;;;;;6.63;2.40;;;24.20;43.00;;;;;;10432131;28;20209;-13
2021/05/19 12:46:15;;;;;;;6.03;2.30;;;24.30;42.90;;;;;;10432462;28;20197;-12
2021/05/19 12:51:54;;;;;;;5.17;2.40;;;24.20;43.20;;;;;;10430272;28;20217;-13
2021/05/19 12:57:18;;;;;;;3.57;2.40;;;24.30;43.00;;;;;;10428955;28;20213;-12
2021/05/19 13:02:45;;;;;;;5.57;2.10;;;23.20;44.20;;;;;;10429015;28;20200;-13
2021/05/19 13:08:17;;;;;;;3.80;2.10;;;22.50;46.40;;;;;;10442798;28;20212;-13
2021/05/19 13:13:46;;;;;;;4.33;2.10;;;22.10;47.30;;;;;;10446331;28;20563;-13
2021/05/19 13:19:20;;;;;;;15.03;2.50;;;21.80;48.20;;;;;;10452129;28;20213;-12
2021/05/19 13:24:42;;;;;;;4.50;2.23;;;21.80;48.50;;;;;;10479352;28;20192;-12
2021/05/19 13:30:05;;;;;;;6.40;2.10;;;22.00;47.90;;;;;;10492159;28;20216;-12
2021/05/19 13:41:16;;;;;;;3.90;1.60;;;21.60;48.30;;;;;;10450925;28;20716;-11
2021/05/19 13:46:42;;;;;;;4.73;1.63;;;21.60;48.60;;;;;;10449857;28;20193;-12
2021/05/19 13:52:06;;;;;;;5.60;1.93;;;21.50;49.10;;;;;;10410892;28;20197;-12
2021/05/19 13:57:28;;;;;;;2.70;1.60;;;21.40;49.40;;;;;;10438993;28;20591;-12
2021/05/19 14:02:50;;;;;;;6.20;1.53;;;21.40;49.50;;;;;;10448068;28;20581;-12
2021/05/19 14:08:12;;;;;;;2.67;1.40;;;21.40;49.70;;;;;;10451043;28;20220;-13
2021/05/19 14:13:38;;;;;;;7.10;1.70;;;21.30;49.70;;;;;;10459723;28;20220;-13
2021/05/19 14:19:18;;;;;;;4.17;1.20;;;21.40;49.50;;;;;;10459657;28;20205;-13
2021/05/19 14:30:20;;;;;;;2.23;1.20;;;21.30;50.00;;;;;;10458509;28;20251;-12
2021/05/19 14:36:27;;;;;;;2.83;1.30;;;21.30;50.30;;;;;;10434788;28;20222;-12
2021/05/19 15:05:11;;;;;;;7.10;1.97;;;21.30;50.30;;;;;;10499820;28;20687;-14
2021/05/19 15:10:32;;;;;;;5.20;1.30;;;21.30;50.30;;;;;;10496706;28;20242;-12
2021/05/19 15:15:54;;;;;;;2.33;1.20;;;21.30;50.10;;;;;;10498102;28;20219;-14
2021/05/19 15:21:17;;;;;;;11.60;1.50;;;21.30;50.30;;;;;;10494374;28;20231;-12
2021/05/19 15:26:38;;;;;;;3.27;1.30;;;21.30;50.50;;;;;;10497963;28;20196;-16
2021/05/19 15:32:00;;;;;;;5.27;1.20;;;21.30;50.50;;;;;;10498038;28;20224;-14
2021/05/19 15:37:22;;;;;;;3.87;1.60;;;21.30;50.50;;;;;;10497532;28;20703;-12
2021/05/19 15:42:44;;;;;;;5.77;1.40;;;21.30;50.50;;;;;;10498607;28;20226;-14
2021/05/19 15:48:07;;;;;;;5.17;1.17;;;21.30;50.70;;;;;;10486154;28;20224;-12
2021/05/19 15:53:30;;;;;;;6.47;1.27;;;21.30;50.20;;;;;;10454106;28;20216;-14
2021/05/19 15:58:52;;;;;;;7.55;1.70;;;21.40;50.20;;;;;;10484494;28;20894;-12
2021/05/19 16:04:15;;;;;;;6.43;1.27;;;22.00;48.90;;;;;;10459003;28;20189;-15
2021/05/19 16:09:38;;;;;;;4.67;0.97;;;22.70;47.60;;;;;;10453513;28;20296;-13
2021/05/19 16:15:00;;;;;;;4.00;0.90;;;22.90;46.60;;;;;;10454530;28;20224;-14
2021/05/19 16:20:23;;;;;;;4.50;0.87;;;22.70;47.30;;;;;;10453664;28;20696;-16
2021/05/19 16:25:45;;;;;;;5.97;0.80;;;22.90;46.60;;;;;;10456336;28;20273;-14
2021/05/19 16:31:12;;;;;;;3.47;0.93;;;23.00;46.40;;;;;;10487290;28;20562;-14
2021/05/19 16:36:36;;;;;;;5.33;1.00;;;23.10;46.30;;;;;;10494695;28;20216;-12
2021/05/19 16:42:00;;;;;;;4.97;0.90;;;23.40;45.90;;;;;;10495941;28;20216;-16
2021/05/19 16:47:22;;;;;;;4.10;1.13;;;23.40;45.80;;;;;;10494880;28;20197;-11
2021/05/19 16:52:43;;;;;;;4.10;1.17;;;22.70;46.90;;;;;;10452260;28;20217;-13
2021/05/19 16:58:06;;;;;;;2.23;0.77;;;22.20;48.40;;;;;;10453869;28;20713;-15
2021/05/19 17:09:07;;;;;;;2.83;0.70;;;21.60;49.80;;;;;;10494064;28;20248;-11
2021/05/19 17:14:31;;;;;;;5.03;0.87;;;21.50;50.30;;;;;;10495089;28;20208;-15
2021/05/19 17:19:52;;;;;;;2.17;0.70;;;21.40;50.40;;;;;;10485918;28;20224;-16
2021/05/19 17:25:15;;;;;;;1.43;0.70;;;21.30;50.70;;;;;;10492457;28;20188;-15
2021/05/19 17:30:37;;;;;;;1.37;0.60;;;21.30;51.30;;;;;;10493486;28;20212;-12
2021/05/19 17:35:59;;;;;;;2.37;1.00;;;21.30;50.90;;;;;;10492182;28;20215;-14
2021/05/19 17:41:22;;;;;;;2.30;0.90;;;21.30;51.00;;;;;;10474920;28;20212;-14
2021/05/19 17:46:45;;;;;;;2.17;0.70;;;21.20;51.00;;;;;;10466244;28;20221;-12
2021/05/19 17:52:09;;;;;;;1.83;0.60;;;21.20;51.10;;;;;;10458639;28;20608;-14
2021/05/19 17:57:30;;;;;;;0.63;0.50;;;21.20;51.10;;;;;;10491225;28;20219;-13
2021/05/19 18:02:53;;;;;;;1.47;0.70;;;21.20;51.30;;;;;;10466225;28;20674;-15
2021/05/19 18:08:15;;;;;;;2.80;0.57;;;21.10;51.40;;;;;;10451713;28;20243;-12
2021/05/19 18:13:36;;;;;;;2.47;0.80;;;21.20;51.20;;;;;;10450812;28;20661;-15
2021/05/19 18:19:01;;;;;;;2.17;0.70;;;21.20;51.00;;;;;;10451596;28;20605;-12
2021/05/19 18:24:23;;;;;;;1.77;0.60;;;21.20;51.10;;;;;;10450480;28;20569;-12
2021/05/19 18:29:48;;;;;;;1.97;0.60;;;21.20;50.90;;;;;;10451978;28;20755;-13
2021/05/19 18:35:18;;;;;;;3.37;0.77;;;21.20;50.80;;;;;;10482605;28;20256;-12
2021/05/19 18:40:40;;;;;;;2.53;0.70;;;21.20;50.90;;;;;;10491473;28;20219;-12
2021/05/19 18:46:01;;;;;;;2.50;0.70;;;21.10;50.90;;;;;;10491061;28;20188;-15
2021/05/19 18:51:24;;;;;;;1.87;0.60;;;21.10;50.90;;;;;;10481964;28;20224;-14
2021/05/19 18:56:45;;;;;;;3.33;0.90;;;21.10;51.10;;;;;;10492942;28;20700;-14
2021/05/19 19:02:07;;;;;;;3.63;0.70;;;21.00;51.00;;;;;;10483620;28;20259;-12
2021/05/19 19:07:30;;;;;;;3.13;0.70;;;21.00;51.00;;;;;;10457322;28;20192;-13
2021/05/19 19:12:51;;;;;;;2.00;0.50;;;21.00;51.00;;;;;;10457545;28;20578;-15
2021/05/19 19:18:13;;;;;;;1.77;0.70;;;21.00;51.10;;;;;;10456943;28;20232;-14
2021/05/19 19:23:36;;;;;;;2.67;0.60;;;21.10;50.80;;;;;;10457116;28;20578;-12
2021/05/19 19:28:58;;;;;;;1.77;0.80;;;21.10;51.00;;;;;;10472186;28;20209;-15
2021/05/19 19:34:20;;;;;;;1.53;0.60;;;21.10;51.00;;;;;;10482190;28;20215;-14
2021/05/19 19:39:42;;;;;;;0.93;0.53;;;21.00;50.80;;;;;;10458521;28;20221;-12
2021/05/19 19:45:06;;;;;;;0.90;0.60;;;21.00;50.90;;;;;;10456503;28;20268;-14
2021/05/19 19:50:29;;;;;;;1.40;0.70;;;21.00;50.80;;;;;;10487151;28;20272;-14
2021/05/19 19:55:51;;;;;;;1.03;0.50;;;21.00;50.90;;;;;;10488255;28;20689;-12
2021/05/19 20:01:15;;;;;;;0.60;0.60;;;21.00;50.90;;;;;;10478386;28;20299;-14
2021/05/19 20:06:36;;;;;;;1.33;0.80;;;21.00;50.90;;;;;;10455352;28;20196;-12
2021/05/19 20:11:59;;;;;;;1.20;0.50;;;21.00;51.00;;;;;;10455155;28;20209;-15
2021/05/19 20:17:22;;;;;;;2.13;0.63;;;21.00;50.80;;;;;;10489921;28;20212;-13
2021/05/19 20:22:43;;;;;;;1.07;0.60;;;21.00;50.80;;;;;;10492880;28;20194;-14
2021/05/19 20:28:06;;;;;;;0.57;0.50;;;21.10;50.90;;;;;;10485469;28;20588;-12
2021/05/19 20:33:28;;;;;;;0.87;0.60;;;21.10;50.90;;;;;;10493737;28;20200;-13
2021/05/19 20:38:50;;;;;;;2.13;0.60;;;21.00;51.00;;;;;;10495832;28;20220;-14
2021/05/19 20:44:13;;;;;;;0.90;0.60;;;21.10;51.00;;;;;;10495396;28;20216;-13
2021/05/19 20:49:34;;;;;;;0.67;0.50;;;21.00;51.10;;;;;;10520637;22;20228;-13
2021/05/19 20:54:56;;;;;;;0.70;0.50;;;21.00;51.10;;;;;;10515363;28;20692;-11
2021/05/19 21:00:21;;;;;;;0.73;0.60;;;21.00;51.30;;;;;;10507350;28;20217;-12
2021/05/19 21:05:43;;;;;;;1.13;0.60;;;21.10;51.20;;;;;;10494563;28;20253;-12
2021/05/19 21:11:05;;;;;;;1.47;0.50;;;21.00;51.20;;;;;;10487523;28;20648;-11
2021/05/19 21:16:27;;;;;;;0.90;0.70;;;21.10;51.00;;;;;;10453402;28;20255;-12
2021/05/19 21:21:49;;;;;;;0.97;0.60;;;21.00;51.30;;;;;;10452894;28;20697;-13
2021/05/19 21:27:11;;;;;;;0.83;0.60;;;21.00;51.20;;;;;;10453819;28;20197;-13
2021/05/19 21:32:33;;;;;;;1.00;0.60;;;21.00;51.20;;;;;;10472158;28;20278;-11
2021/05/19 21:37:55;;;;;;;1.07;0.70;;;21.00;51.10;;;;;;10484885;28;20246;-11
2021/05/19 21:43:16;;;;;;;0.57;0.57;;;21.00;51.40;;;;;;10493133;28;20676;-11
2021/05/19 21:48:39;;;;;;;0.80;0.70;;;21.00;51.30;;;;;;10491460;28;20584;-12
2021/05/19 21:54:01;;;;;;;0.77;0.60;;;21.00;51.30;;;;;;10493665;28;20198;-10
2021/05/19 21:59:22;;;;;;;0.90;0.63;;;21.00;51.30;;;;;;10483490;28;20227;-11
2021/05/19 22:04:45;;;;;;;0.97;0.70;;;21.00;51.40;;;;;;10478143;28;20725;-12
2021/05/19 22:10:07;;;;;;;0.60;0.60;;;21.10;51.40;;;;;;10492678;28;20212;-11
2021/05/19 22:15:28;;;;;;;1.47;0.90;;;21.00;51.40;;;;;;10493489;28;20216;-12
2021/05/19 22:21:15;;;;;;;0.67;0.67;;;21.00;51.40;;;;;;10485594;28;20223;-13
2021/05/19 22:26:39;;;;;;;0.80;0.60;;;21.00;51.40;;;;;;10491957;28;20185;-11
2021/05/19 22:32:01;;;;;;;0.70;0.67;;;21.00;51.30;;;;;;10473150;28;20228;-13
2021/05/19 22:37:23;;;;;;;1.03;0.80;;;21.00;51.40;;;;;;10459243;28;20296;-11
2021/05/19 22:42:45;;;;;;;1.10;0.63;;;21.00;51.50;;;;;;10459889;28;20224;-12
2021/05/19 22:48:07;;;;;;;1.27;0.80;;;21.00;51.20;;;;;;10459232;28;20593;-11
2021/05/19 22:53:32;;;;;;;1.10;0.67;;;21.00;51.20;;;;;;10459065;28;20188;-12
2021/05/19 22:58:53;;;;;;;1.23;0.63;;;20.90;51.40;;;;;;10461557;28;20225;-13
2021/05/19 23:04:15;;;;;;;0.73;0.70;;;21.00;51.60;;;;;;10462028;28;20197;-13
2021/05/19 23:09:37;;;;;;;0.63;0.63;;;20.90;51.40;;;;;;10459044;28;20221;-13
2021/05/19 23:14:59;;;;;;;0.93;0.83;;;21.00;51.30;;;;;;10459056;28;20209;-11
2021/05/19 23:20:20;;;;;;;0.90;0.87;;;21.00;51.30;;;;;;10458780;28;20216;-11
2021/05/19 23:25:44;;;;;;;0.90;0.80;;;21.00;51.20;;;;;;10458508;28;20197;-12
2021/05/19 23:31:05;;;;;;;1.23;0.87;;;21.00;51.20;;;;;;10457173;28;20209;-13
2021/05/19 23:36:27;;;;;;;0.80;0.80;;;21.00;51.30;;;;;;10477264;28;20221;-13
2021/05/19 23:41:49;;;;;;;0.57;0.57;;;21.00;51.20;;;;;;10497725;28;20231;-12
2021/05/19 23:47:11;;;;;;;0.60;0.57;;;21.00;51.20;;;;;;10497833;28;20195;-13
2021/05/19 23:52:33;;;;;;;0.70;0.70;;;21.00;51.20;;;;;;10498828;28;20232;-13
2021/05/19 23:57:55;;;;;;;0.87;0.70;;;21.00;51.30;;;;;;10495779;28;20216;-12
